This is the latest recevied weather packets stored in our database for station/object N8SDR. If no packets are shown the sender has not sent any weather packets the latest 10 day(s).
| Time | Temp. | Humidity | Pressure | Rain* | Wind** | Luminosity | Snow |
|---|---|---|---|---|---|---|---|
| 1778175020 | 14.44° C | 50% | 1011.5 hPa | 0 mm | - | 730 W/m² | - |
| 1778174715 | 13.89° C | 49% | 1011.6 hPa | 0 mm | - | 753 W/m² | - |
| 1778174412 | 13.89° C | 48% | 1011.7 hPa | 0 mm | - | 765 W/m² | - |
| 1778174108 | 13.89° C | 48% | 1011.8 hPa | 0 mm | - | 758 W/m² | - |
| 1778173805 | 14.44° C | 49% | 1012.1 hPa | 0 mm | - | 757 W/m² | - |
| 1778173502 | 14.44° C | 51% | 1012 hPa | 0 mm | - | 767 W/m² | - |
| 1778173198 | 14.44° C | 48% | 1011.7 hPa | 0 mm | - | 779 W/m² | - |
| 1778172894 | 13.33° C | 49% | 1012 hPa | 0 mm | - | 756 W/m² | - |
| 1778172590 | 13.33° C | 49% | 1012 hPa | 0 mm | - | 715 W/m² | - |
| 1778172287 | 13.89° C | 50% | 1012 hPa | 0 mm | - | 734 W/m² | - |
| 1778171984 | 13.33° C | 49% | 1011.8 hPa | 0 mm | - | 750 W/m² | - |
| 1778171682 | 13.33° C | 50% | 1012.1 hPa | 0 mm | - | 763 W/m² | - |
| 1778171379 | 12.78° C | 52% | 1012.1 hPa | 0 mm | - | 767 W/m² | - |
| 1778171074 | 13.33° C | 49% | 1012.1 hPa | 0 mm | - | 764 W/m² | - |
| 1778170771 | 13.33° C | 53% | 1012.3 hPa | 0 mm | - | 748 W/m² | - |
| 1778170467 | 12.78° C | 53% | 1012.3 hPa | 0 mm | - | 729 W/m² | - |
| 1778170164 | 12.22° C | 54% | 1012.3 hPa | 0 mm | - | 704 W/m² | - |
| 1778169860 | 12.78° C | 52% | 1012.3 hPa | 0 mm | - | 718 W/m² | - |
| 1778169556 | 12.22° C | 50% | 1012.1 hPa | 0 mm | - | 737 W/m² | - |
| 1778169252 | 12.22° C | 52% | 1012.3 hPa | 0 mm | - | 717 W/m² | - |
| 1778168949 | 12.78° C | 51% | 1012.3 hPa | 0 mm | - | 753 W/m² | - |
| 1778168646 | 12.78° C | 49% | 1012.1 hPa | 0 mm | - | 772 W/m² | - |
| 1778168343 | 12.78° C | 51% | 1012.3 hPa | 0 mm | - | 804 W/m² | - |
| 1778168188 | 12.78° C | 53% | 1012.3 hPa | 0 mm | - | 814 W/m² | - |
| 1778168040 | 12.78° C | 53% | 1012.3 hPa | 0 mm | - | 814 W/m² | - |
* Rain latest hour (hover to see other rain measurements)
** Current wind speed in m/s (hover to see current wind gust speed)